sensor_id;sensor_type;location;lat;lon;timestamp;temperature;humidity
70166;SHT30;57541;47.408;18.822;2023-10-31T00:00:26;15.31;86.43
70166;SHT30;57541;47.408;18.822;2023-10-31T00:00:58;15.25;86.65
70166;SHT30;57541;47.408;18.822;2023-10-31T00:01:30;15.21;87.02
70166;SHT30;57541;47.408;18.822;2023-10-31T00:02:02;15.26;86.49
70166;SHT30;57541;47.408;18.822;2023-10-31T00:02:34;15.33;86.08
70166;SHT30;57541;47.408;18.822;2023-10-31T00:03:06;15.32;86.23
70166;SHT30;57541;47.408;18.822;2023-10-31T00:03:37;15.31;86.37
70166;SHT30;57541;47.408;18.822;2023-10-31T00:04:11;15.31;86.36
70166;SHT30;57541;47.408;18.822;2023-10-31T00:04:43;15.29;86.44
70166;SHT30;57541;47.408;18.822;2023-10-31T00:05:15;15.26;86.47
70166;SHT30;57541;47.408;18.822;2023-10-31T00:05:49;15.25;86.74
70166;SHT30;57541;47.408;18.822;2023-10-31T00:06:20;15.25;86.56
70166;SHT30;57541;47.408;18.822;2023-10-31T00:06:52;15.26;86.45
70166;SHT30;57541;47.408;18.822;2023-10-31T00:07:24;15.25;86.44
70166;SHT30;57541;47.408;18.822;2023-10-31T00:07:56;15.22;86.69
70166;SHT30;57541;47.408;18.822;2023-10-31T00:08:28;15.19;86.82
70166;SHT30;57541;47.408;18.822;2023-10-31T00:08:59;15.19;86.69
70166;SHT30;57541;47.408;18.822;2023-10-31T00:09:31;15.19;86.51
70166;SHT30;57541;47.408;18.822;2023-10-31T00:10:03;15.21;86.55
70166;SHT30;57541;47.408;18.822;2023-10-31T00:10:35;15.15;86.77
70166;SHT30;57541;47.408;18.822;2023-10-31T00:11:07;15.15;86.89
70166;SHT30;57541;47.408;18.822;2023-10-31T00:11:41;15.15;86.70
70166;SHT30;57541;47.408;18.822;2023-10-31T00:12:12;15.18;86.67
70166;SHT30;57541;47.408;18.822;2023-10-31T00:12:44;15.15;86.87
70166;SHT30;57541;47.408;18.822;2023-10-31T00:13:16;15.16;86.79
70166;SHT30;57541;47.408;18.822;2023-10-31T00:13:47;15.15;86.95
70166;SHT30;57541;47.408;18.822;2023-10-31T00:14:19;15.13;86.72
70166;SHT30;57541;47.408;18.822;2023-10-31T00:15:01;15.11;86.89
70166;SHT30;57541;47.408;18.822;2023-10-31T00:15:33;15.12;86.65
70166;SHT30;57541;47.408;18.822;2023-10-31T00:16:05;15.13;86.58
70166;SHT30;57541;47.408;18.822;2023-10-31T00:16:37;15.13;86.67
70166;SHT30;57541;47.408;18.822;2023-10-31T00:17:09;15.12;86.78
70166;SHT30;57541;47.408;18.822;2023-10-31T00:17:41;15.12;86.79
70166;SHT30;57541;47.408;18.822;2023-10-31T00:18:12;15.08;86.88
70166;SHT30;57541;47.408;18.822;2023-10-31T00:18:44;15.11;86.77
70166;SHT30;57541;47.408;18.822;2023-10-31T00:19:16;15.12;86.82
70166;SHT30;57541;47.408;18.822;2023-10-31T00:19:48;15.09;86.76
70166;SHT30;57541;47.408;18.822;2023-10-31T00:20:19;15.09;86.73
70166;SHT30;57541;47.408;18.822;2023-10-31T00:20:52;15.08;86.68
70166;SHT30;57541;47.408;18.822;2023-10-31T00:21:23;15.09;86.78
70166;SHT30;57541;47.408;18.822;2023-10-31T00:21:55;15.09;86.75
70166;SHT30;57541;47.408;18.822;2023-10-31T00:22:27;15.11;86.61
70166;SHT30;57541;47.408;18.822;2023-10-31T00:22:59;15.08;86.54
70166;SHT30;57541;47.408;18.822;2023-10-31T00:23:31;15.11;86.38
70166;SHT30;57541;47.408;18.822;2023-10-31T00:24:03;15.09;86.44
70166;SHT30;57541;47.408;18.822;2023-10-31T00:24:35;15.09;86.43
70166;SHT30;57541;47.408;18.822;2023-10-31T00:25:07;15.09;86.58
70166;SHT30;57541;47.408;18.822;2023-10-31T00:25:38;15.11;86.21
70166;SHT30;57541;47.408;18.822;2023-10-31T00:26:10;15.12;86.16
70166;SHT30;57541;47.408;18.822;2023-10-31T00:26:42;15.12;86.07
70166;SHT30;57541;47.408;18.822;2023-10-31T00:27:14;15.13;86.05
70166;SHT30;57541;47.408;18.822;2023-10-31T00:27:46;15.12;86.09
70166;SHT30;57541;47.408;18.822;2023-10-31T00:28:18;15.15;86.06
70166;SHT30;57541;47.408;18.822;2023-10-31T00:28:49;15.16;85.96
70166;SHT30;57541;47.408;18.822;2023-10-31T00:29:21;15.12;86.04
70166;SHT30;57541;47.408;18.822;2023-10-31T00:29:53;15.13;85.94
70166;SHT30;57541;47.408;18.822;2023-10-31T00:30:25;15.16;85.77
70166;SHT30;57541;47.408;18.822;2023-10-31T00:30:56;15.13;85.82
70166;SHT30;57541;47.408;18.822;2023-10-31T00:31:28;15.13;85.88
70166;SHT30;57541;47.408;18.822;2023-10-31T00:32:00;15.12;86.09
70166;SHT30;57541;47.408;18.822;2023-10-31T00:32:33;15.11;86.12
70166;SHT30;57541;47.408;18.822;2023-10-31T00:33:05;15.09;86.17
70166;SHT30;57541;47.408;18.822;2023-10-31T00:33:37;15.06;86.14
70166;SHT30;57541;47.408;18.822;2023-10-31T00:34:09;15.05;86.15
70166;SHT30;57541;47.408;18.822;2023-10-31T00:34:41;15.02;86.37
70166;SHT30;57541;47.408;18.822;2023-10-31T00:35:13;15.02;86.27
70166;SHT30;57541;47.408;18.822;2023-10-31T00:35:45;15.06;86.12
70166;SHT30;57541;47.408;18.822;2023-10-31T00:36:17;15.06;85.95
70166;SHT30;57541;47.408;18.822;2023-10-31T00:36:49;15.08;85.90
70166;SHT30;57541;47.408;18.822;2023-10-31T00:37:21;15.06;85.96
70166;SHT30;57541;47.408;18.822;2023-10-31T00:37:53;15.06;85.95
70166;SHT30;57541;47.408;18.822;2023-10-31T00:38:25;15.06;85.89
70166;SHT30;57541;47.408;18.822;2023-10-31T00:38:56;15.05;86.27
70166;SHT30;57541;47.408;18.822;2023-10-31T00:39:28;15.05;86.04
70166;SHT30;57541;47.408;18.822;2023-10-31T00:40:00;15.05;85.98
70166;SHT30;57541;47.408;18.822;2023-10-31T00:40:32;15.06;86.00
70166;SHT30;57541;47.408;18.822;2023-10-31T00:41:04;15.05;86.01
70166;SHT30;57541;47.408;18.822;2023-10-31T00:41:35;15.02;86.16
70166;SHT30;57541;47.408;18.822;2023-10-31T00:42:07;14.99;86.37
70166;SHT30;57541;47.408;18.822;2023-10-31T00:42:39;14.98;86.37
70166;SHT30;57541;47.408;18.822;2023-10-31T00:43:13;14.95;86.48
70166;SHT30;57541;47.408;18.822;2023-10-31T00:43:45;14.92;86.57
70166;SHT30;57541;47.408;18.822;2023-10-31T00:44:17;14.92;86.65
70166;SHT30;57541;47.408;18.822;2023-10-31T00:44:48;14.89;86.68
70166;SHT30;57541;47.408;18.822;2023-10-31T00:45:20;14.92;86.56
70166;SHT30;57541;47.408;18.822;2023-10-31T00:45:52;14.92;86.36
70166;SHT30;57541;47.408;18.822;2023-10-31T00:46:25;14.92;86.38
70166;SHT30;57541;47.408;18.822;2023-10-31T00:46:57;14.88;86.46
70166;SHT30;57541;47.408;18.822;2023-10-31T00:47:29;14.92;86.34
70166;SHT30;57541;47.408;18.822;2023-10-31T00:48:00;14.92;86.21
70166;SHT30;57541;47.408;18.822;2023-10-31T00:48:32;14.94;86.16
70166;SHT30;57541;47.408;18.822;2023-10-31T00:49:08;14.94;86.19
70166;SHT30;57541;47.408;18.822;2023-10-31T00:49:39;14.94;86.13
70166;SHT30;57541;47.408;18.822;2023-10-31T00:50:11;14.94;85.86
70166;SHT30;57541;47.408;18.822;2023-10-31T00:50:43;14.95;85.96
70166;SHT30;57541;47.408;18.822;2023-10-31T00:51:15;14.98;86.08
70166;SHT30;57541;47.408;18.822;2023-10-31T00:51:46;14.95;86.25
70166;SHT30;57541;47.408;18.822;2023-10-31T00:52:18;14.96;86.17
70166;SHT30;57541;47.408;18.822;2023-10-31T00:52:50;14.92;86.24
70166;SHT30;57541;47.408;18.822;2023-10-31T00:53:22;14.94;86.07
70166;SHT30;57541;47.408;18.822;2023-10-31T00:53:54;14.96;85.94
70166;SHT30;57541;47.408;18.822;2023-10-31T00:54:25;14.95;85.97
70166;SHT30;57541;47.408;18.822;2023-10-31T00:54:57;14.96;85.77
70166;SHT30;57541;47.408;18.822;2023-10-31T00:55:29;14.98;85.74
70166;SHT30;57541;47.408;18.822;2023-10-31T00:56:01;14.98;85.78
70166;SHT30;57541;47.408;18.822;2023-10-31T00:56:33;14.96;86.02
70166;SHT30;57541;47.408;18.822;2023-10-31T00:57:06;14.96;85.99
70166;SHT30;57541;47.408;18.822;2023-10-31T00:57:38;14.95;86.03
70166;SHT30;57541;47.408;18.822;2023-10-31T00:58:09;14.95;85.98
70166;SHT30;57541;47.408;18.822;2023-10-31T00:58:41;15.01;85.65
70166;SHT30;57541;47.408;18.822;2023-10-31T00:59:13;15.01;85.63
70166;SHT30;57541;47.408;18.822;2023-10-31T00:59:45;14.99;85.62
70166;SHT30;57541;47.408;18.822;2023-10-31T01:00:16;14.96;85.89
70166;SHT30;57541;47.408;18.822;2023-10-31T01:00:49;15.02;85.52
70166;SHT30;57541;47.408;18.822;2023-10-31T01:01:20;15.12;84.97
70166;SHT30;57541;47.408;18.822;2023-10-31T01:01:52;15.13;84.89
70166;SHT30;57541;47.408;18.822;2023-10-31T01:02:24;15.11;85.09
70166;SHT30;57541;47.408;18.822;2023-10-31T01:02:56;15.11;85.04
70166;SHT30;57541;47.408;18.822;2023-10-31T01:03:28;15.09;85.14
70166;SHT30;57541;47.408;18.822;2023-10-31T01:04:00;15.12;85.06
70166;SHT30;57541;47.408;18.822;2023-10-31T01:04:32;15.09;85.11
70166;SHT30;57541;47.408;18.822;2023-10-31T01:05:04;15.09;85.13
70166;SHT30;57541;47.408;18.822;2023-10-31T01:05:36;15.11;85.26
70166;SHT30;57541;47.408;18.822;2023-10-31T01:06:07;15.08;85.31
70166;SHT30;57541;47.408;18.822;2023-10-31T01:06:41;15.08;85.23
70166;SHT30;57541;47.408;18.822;2023-10-31T01:07:13;15.05;85.35
70166;SHT30;57541;47.408;18.822;2023-10-31T01:07:48;15.05;85.40
70166;SHT30;57541;47.408;18.822;2023-10-31T01:08:20;15.02;85.55
70166;SHT30;57541;47.408;18.822;2023-10-31T01:08:51;15.01;85.78
70166;SHT30;57541;47.408;18.822;2023-10-31T01:09:23;14.98;85.92
70166;SHT30;57541;47.408;18.822;2023-10-31T01:09:55;14.99;85.71
70166;SHT30;57541;47.408;18.822;2023-10-31T01:10:27;14.99;85.68
70166;SHT30;57541;47.408;18.822;2023-10-31T01:10:58;14.99;85.69
70166;SHT30;57541;47.408;18.822;2023-10-31T01:11:30;14.96;85.83
70166;SHT30;57541;47.408;18.822;2023-10-31T01:12:02;14.96;85.71
70166;SHT30;57541;47.408;18.822;2023-10-31T01:12:34;14.99;85.54
70166;SHT30;57541;47.408;18.822;2023-10-31T01:13:05;14.98;85.48
70166;SHT30;57541;47.408;18.822;2023-10-31T01:13:38;14.98;85.66
70166;SHT30;57541;47.408;18.822;2023-10-31T01:14:09;15.03;85.24
70166;SHT30;57541;47.408;18.822;2023-10-31T01:14:41;15.03;85.08
70166;SHT30;57541;47.408;18.822;2023-10-31T01:15:13;15.06;84.67
70166;SHT30;57541;47.408;18.822;2023-10-31T01:15:45;15.11;84.63
70166;SHT30;57541;47.408;18.822;2023-10-31T01:16:16;15.13;84.62
70166;SHT30;57541;47.408;18.822;2023-10-31T01:16:48;15.13;84.66
70166;SHT30;57541;47.408;18.822;2023-10-31T01:17:21;15.11;84.78
70166;SHT30;57541;47.408;18.822;2023-10-31T01:17:53;15.13;84.65
70166;SHT30;57541;47.408;18.822;2023-10-31T01:18:24;15.12;84.71
70166;SHT30;57541;47.408;18.822;2023-10-31T01:18:57;15.09;84.92
70166;SHT30;57541;47.408;18.822;2023-10-31T01:19:28;15.08;84.84
70166;SHT30;57541;47.408;18.822;2023-10-31T01:20:00;15.08;85.06
70166;SHT30;57541;47.408;18.822;2023-10-31T01:20:32;15.12;84.74
70166;SHT30;57541;47.408;18.822;2023-10-31T01:21:04;15.09;84.87
70166;SHT30;57541;47.408;18.822;2023-10-31T01:21:35;15.08;84.93
70166;SHT30;57541;47.408;18.822;2023-10-31T01:22:07;15.06;84.99
70166;SHT30;57541;47.408;18.822;2023-10-31T01:22:39;15.08;84.66
70166;SHT30;57541;47.408;18.822;2023-10-31T01:23:11;15.08;84.72
70166;SHT30;57541;47.408;18.822;2023-10-31T01:23:42;15.11;84.84
70166;SHT30;57541;47.408;18.822;2023-10-31T01:24:14;15.08;84.73
70166;SHT30;57541;47.408;18.822;2023-10-31T01:24:46;15.11;84.59
70166;SHT30;57541;47.408;18.822;2023-10-31T01:25:17;15.09;84.68
70166;SHT30;57541;47.408;18.822;2023-10-31T01:25:49;15.08;84.82
70166;SHT30;57541;47.408;18.822;2023-10-31T01:26:21;15.06;84.93
70166;SHT30;57541;47.408;18.822;2023-10-31T01:26:52;15.15;84.32
70166;SHT30;57541;47.408;18.822;2023-10-31T01:27:24;15.15;84.33
70166;SHT30;57541;47.408;18.822;2023-10-31T01:27:56;15.13;84.34
70166;SHT30;57541;47.408;18.822;2023-10-31T01:28:28;15.15;84.53
70166;SHT30;57541;47.408;18.822;2023-10-31T01:28:59;15.16;84.40
70166;SHT30;57541;47.408;18.822;2023-10-31T01:29:31;15.13;84.65
70166;SHT30;57541;47.408;18.822;2023-10-31T01:30:03;15.19;84.07
70166;SHT30;57541;47.408;18.822;2023-10-31T01:30:35;15.21;84.15
70166;SHT30;57541;47.408;18.822;2023-10-31T01:31:07;15.21;84.13
70166;SHT30;57541;47.408;18.822;2023-10-31T01:31:42;15.16;84.22
70166;SHT30;57541;47.408;18.822;2023-10-31T01:32:29;15.18;84.20
70166;SHT30;57541;47.408;18.822;2023-10-31T01:33:01;15.16;84.34
70166;SHT30;57541;47.408;18.822;2023-10-31T01:33:33;15.18;84.48
70166;SHT30;57541;47.408;18.822;2023-10-31T01:34:05;15.15;84.54
70166;SHT30;57541;47.408;18.822;2023-10-31T01:34:37;15.13;84.49
70166;SHT30;57541;47.408;18.822;2023-10-31T01:35:09;15.12;84.58
70166;SHT30;57541;47.408;18.822;2023-10-31T01:35:41;15.09;84.63
70166;SHT30;57541;47.408;18.822;2023-10-31T01:36:12;15.13;84.73
70166;SHT30;57541;47.408;18.822;2023-10-31T01:36:45;15.12;84.61
70166;SHT30;57541;47.408;18.822;2023-10-31T01:37:17;15.09;84.78
70166;SHT30;57541;47.408;18.822;2023-10-31T01:37:50;15.08;84.68
70166;SHT30;57541;47.408;18.822;2023-10-31T01:38:23;15.11;84.53
70166;SHT30;57541;47.408;18.822;2023-10-31T01:38:55;15.12;84.42
70166;SHT30;57541;47.408;18.822;2023-10-31T01:39:26;15.13;84.30
70166;SHT30;57541;47.408;18.822;2023-10-31T01:39:58;15.13;84.30
70166;SHT30;57541;47.408;18.822;2023-10-31T01:40:30;15.13;84.31
70166;SHT30;57541;47.408;18.822;2023-10-31T01:41:02;15.16;84.17
70166;SHT30;57541;47.408;18.822;2023-10-31T01:41:34;15.18;84.11
70166;SHT30;57541;47.408;18.822;2023-10-31T01:42:05;15.19;84.23
70166;SHT30;57541;47.408;18.822;2023-10-31T01:42:37;15.16;84.31
70166;SHT30;57541;47.408;18.822;2023-10-31T01:43:09;15.16;84.27
70166;SHT30;57541;47.408;18.822;2023-10-31T01:43:41;15.19;84.32
70166;SHT30;57541;47.408;18.822;2023-10-31T01:44:13;15.18;84.32
70166;SHT30;57541;47.408;18.822;2023-10-31T01:44:45;15.22;83.86
70166;SHT30;57541;47.408;18.822;2023-10-31T01:45:16;15.26;83.76
70166;SHT30;57541;47.408;18.822;2023-10-31T01:45:48;15.22;83.93
70166;SHT30;57541;47.408;18.822;2023-10-31T01:46:20;15.25;83.77
70166;SHT30;57541;47.408;18.822;2023-10-31T01:46:52;15.25;83.94
70166;SHT30;57541;47.408;18.822;2023-10-31T01:47:23;15.23;84.00
70166;SHT30;57541;47.408;18.822;2023-10-31T01:47:56;15.22;84.04
70166;SHT30;57541;47.408;18.822;2023-10-31T01:48:30;15.23;84.11
70166;SHT30;57541;47.408;18.822;2023-10-31T01:49:02;15.21;84.15
70166;SHT30;57541;47.408;18.822;2023-10-31T01:49:36;15.23;83.97
70166;SHT30;57541;47.408;18.822;2023-10-31T01:50:08;15.22;84.01
70166;SHT30;57541;47.408;18.822;2023-10-31T01:50:41;15.21;84.17
70166;SHT30;57541;47.408;18.822;2023-10-31T01:51:13;15.22;84.06
70166;SHT30;57541;47.408;18.822;2023-10-31T01:51:45;15.23;83.85
70166;SHT30;57541;47.408;18.822;2023-10-31T01:52:17;15.23;83.81
70166;SHT30;57541;47.408;18.822;2023-10-31T01:52:49;15.23;83.92
70166;SHT30;57541;47.408;18.822;2023-10-31T01:53:22;15.25;83.98
70166;SHT30;57541;47.408;18.822;2023-10-31T01:53:55;15.21;84.05
70166;SHT30;57541;47.408;18.822;2023-10-31T01:54:27;15.22;84.08
70166;SHT30;57541;47.408;18.822;2023-10-31T01:54:59;15.22;84.00
70166;SHT30;57541;47.408;18.822;2023-10-31T01:55:32;15.23;83.82
70166;SHT30;57541;47.408;18.822;2023-10-31T01:56:04;15.21;83.76
70166;SHT30;57541;47.408;18.822;2023-10-31T01:56:37;15.25;83.72
70166;SHT30;57541;47.408;18.822;2023-10-31T01:57:09;15.28;83.53
70166;SHT30;57541;47.408;18.822;2023-10-31T01:57:41;15.29;83.45
70166;SHT30;57541;47.408;18.822;2023-10-31T01:58:15;15.28;83.49
70166;SHT30;57541;47.408;18.822;2023-10-31T01:58:48;15.28;83.38
70166;SHT30;57541;47.408;18.822;2023-10-31T01:59:20;15.32;83.28
70166;SHT30;57541;47.408;18.822;2023-10-31T01:59:52;15.29;83.42
70166;SHT30;57541;47.408;18.822;2023-10-31T02:00:23;15.29;83.49
70166;SHT30;57541;47.408;18.822;2023-10-31T02:00:56;15.29;83.58
70166;SHT30;57541;47.408;18.822;2023-10-31T02:01:28;15.29;83.36
70166;SHT30;57541;47.408;18.822;2023-10-31T02:02:00;15.31;83.44
70166;SHT30;57541;47.408;18.822;2023-10-31T02:02:33;15.28;83.56
70166;SHT30;57541;47.408;18.822;2023-10-31T02:03:06;15.26;83.60
70166;SHT30;57541;47.408;18.822;2023-10-31T02:03:38;15.25;84.38
70166;SHT30;57541;47.408;18.822;2023-10-31T02:04:10;15.22;84.27
70166;SHT30;57541;47.408;18.822;2023-10-31T02:04:42;15.23;84.37
70166;SHT30;57541;47.408;18.822;2023-10-31T02:05:15;15.18;84.41
70166;SHT30;57541;47.408;18.822;2023-10-31T02:05:47;15.16;84.34
70166;SHT30;57541;47.408;18.822;2023-10-31T02:06:19;15.18;84.36
70166;SHT30;57541;47.408;18.822;2023-10-31T02:06:50;15.15;84.10
70166;SHT30;57541;47.408;18.822;2023-10-31T02:07:22;15.15;84.01
70166;SHT30;57541;47.408;18.822;2023-10-31T02:07:54;15.18;83.94
70166;SHT30;57541;47.408;18.822;2023-10-31T02:08:26;15.18;83.99
70166;SHT30;57541;47.408;18.822;2023-10-31T02:08:58;15.15;84.26
70166;SHT30;57541;47.408;18.822;2023-10-31T02:09:29;15.22;83.50
70166;SHT30;57541;47.408;18.822;2023-10-31T02:10:02;15.23;83.39
70166;SHT30;57541;47.408;18.822;2023-10-31T02:10:34;15.25;83.61
70166;SHT30;57541;47.408;18.822;2023-10-31T02:11:06;15.26;83.58
70166;SHT30;57541;47.408;18.822;2023-10-31T02:11:41;15.22;83.65
70166;SHT30;57541;47.408;18.822;2023-10-31T02:12:35;15.19;83.53
70166;SHT30;57541;47.408;18.822;2023-10-31T02:13:24;15.26;83.37
70166;SHT30;57541;47.408;18.822;2023-10-31T02:13:56;15.28;83.27
70166;SHT30;57541;47.408;18.822;2023-10-31T02:14:28;15.25;83.36
70166;SHT30;57541;47.408;18.822;2023-10-31T02:15:00;15.25;83.36
70166;SHT30;57541;47.408;18.822;2023-10-31T02:15:31;15.26;83.43
70166;SHT30;57541;47.408;18.822;2023-10-31T02:16:03;15.22;83.50
70166;SHT30;57541;47.408;18.822;2023-10-31T02:16:35;15.22;83.58
70166;SHT30;57541;47.408;18.822;2023-10-31T02:17:07;15.23;83.60
70166;SHT30;57541;47.408;18.822;2023-10-31T02:17:38;15.23;83.33
70166;SHT30;57541;47.408;18.822;2023-10-31T02:18:11;15.25;83.44
70166;SHT30;57541;47.408;18.822;2023-10-31T02:18:43;15.23;83.36
70166;SHT30;57541;47.408;18.822;2023-10-31T02:19:18;15.25;83.16
70166;SHT30;57541;47.408;18.822;2023-10-31T02:19:50;15.25;83.20
70166;SHT30;57541;47.408;18.822;2023-10-31T02:20:22;15.25;83.36
70166;SHT30;57541;47.408;18.822;2023-10-31T02:20:54;15.26;83.27
70166;SHT30;57541;47.408;18.822;2023-10-31T02:21:27;15.23;83.43
70166;SHT30;57541;47.408;18.822;2023-10-31T02:22:00;15.23;83.48
70166;SHT30;57541;47.408;18.822;2023-10-31T02:22:31;15.22;83.45
70166;SHT30;57541;47.408;18.822;2023-10-31T02:23:04;15.26;83.09
70166;SHT30;57541;47.408;18.822;2023-10-31T02:23:35;15.29;82.90
70166;SHT30;57541;47.408;18.822;2023-10-31T02:24:07;15.26;83.15
70166;SHT30;57541;47.408;18.822;2023-10-31T02:24:39;15.25;83.16
70166;SHT30;57541;47.408;18.822;2023-10-31T02:25:17;15.26;83.09
70166;SHT30;57541;47.408;18.822;2023-10-31T02:25:49;15.29;82.99
70166;SHT30;57541;47.408;18.822;2023-10-31T02:26:21;15.33;82.97
70166;SHT30;57541;47.408;18.822;2023-10-31T02:26:53;15.35;82.82
70166;SHT30;57541;47.408;18.822;2023-10-31T02:27:25;15.32;82.70
70166;SHT30;57541;47.408;18.822;2023-10-31T02:27:57;15.32;83.05
70166;SHT30;57541;47.408;18.822;2023-10-31T02:28:28;15.31;83.00
70166;SHT30;57541;47.408;18.822;2023-10-31T02:29:01;15.31;83.00
70166;SHT30;57541;47.408;18.822;2023-10-31T02:29:33;15.32;82.69
70166;SHT30;57541;47.408;18.822;2023-10-31T02:30:05;15.32;82.80
70166;SHT30;57541;47.408;18.822;2023-10-31T02:30:37;15.32;82.69
70166;SHT30;57541;47.408;18.822;2023-10-31T02:31:09;15.31;82.74
70166;SHT30;57541;47.408;18.822;2023-10-31T02:31:40;15.32;82.78
70166;SHT30;57541;47.408;18.822;2023-10-31T02:32:12;15.29;82.88
70166;SHT30;57541;47.408;18.822;2023-10-31T02:32:44;15.29;82.74
70166;SHT30;57541;47.408;18.822;2023-10-31T02:33:16;15.28;82.96
70166;SHT30;57541;47.408;18.822;2023-10-31T02:33:48;15.29;83.07
70166;SHT30;57541;47.408;18.822;2023-10-31T02:34:20;15.26;83.32
70166;SHT30;57541;47.408;18.822;2023-10-31T02:34:51;15.23;83.16
70166;SHT30;57541;47.408;18.822;2023-10-31T02:35:23;15.23;83.45
70166;SHT30;57541;47.408;18.822;2023-10-31T02:35:55;15.23;83.29
70166;SHT30;57541;47.408;18.822;2023-10-31T02:36:26;15.26;83.14
70166;SHT30;57541;47.408;18.822;2023-10-31T02:36:58;15.28;82.95
70166;SHT30;57541;47.408;18.822;2023-10-31T02:37:30;15.25;82.95
70166;SHT30;57541;47.408;18.822;2023-10-31T02:38:02;15.29;82.87
70166;SHT30;57541;47.408;18.822;2023-10-31T02:38:34;15.31;82.65
70166;SHT30;57541;47.408;18.822;2023-10-31T02:39:05;15.35;82.35
70166;SHT30;57541;47.408;18.822;2023-10-31T02:39:37;15.35;82.21
70166;SHT30;57541;47.408;18.822;2023-10-31T02:40:09;15.40;81.95
70166;SHT30;57541;47.408;18.822;2023-10-31T02:40:41;15.39;82.09
70166;SHT30;57541;47.408;18.822;2023-10-31T02:41:13;15.39;82.13
70166;SHT30;57541;47.408;18.822;2023-10-31T02:41:45;15.40;82.08
70166;SHT30;57541;47.408;18.822;2023-10-31T02:42:16;15.39;82.20
70166;SHT30;57541;47.408;18.822;2023-10-31T02:42:48;15.38;82.12
70166;SHT30;57541;47.408;18.822;2023-10-31T02:43:20;15.39;82.19
70166;SHT30;57541;47.408;18.822;2023-10-31T02:43:52;15.44;81.94
70166;SHT30;57541;47.408;18.822;2023-10-31T02:44:27;15.42;82.18
70166;SHT30;57541;47.408;18.822;2023-10-31T02:44:58;15.40;82.47
70166;SHT30;57541;47.408;18.822;2023-10-31T02:45:30;15.39;82.35
70166;SHT30;57541;47.408;18.822;2023-10-31T02:46:02;15.40;82.01
70166;SHT30;57541;47.408;18.822;2023-10-31T02:46:37;15.42;82.07
70166;SHT30;57541;47.408;18.822;2023-10-31T02:47:10;15.40;82.09
70166;SHT30;57541;47.408;18.822;2023-10-31T02:47:41;15.39;82.01
70166;SHT30;57541;47.408;18.822;2023-10-31T02:48:15;15.42;81.96
70166;SHT30;57541;47.408;18.822;2023-10-31T02:48:46;15.43;81.88
70166;SHT30;57541;47.408;18.822;2023-10-31T02:49:18;15.44;82.03
70166;SHT30;57541;47.408;18.822;2023-10-31T02:49:50;15.44;81.94
70166;SHT30;57541;47.408;18.822;2023-10-31T02:50:21;15.43;82.08
70166;SHT30;57541;47.408;18.822;2023-10-31T02:50:53;15.44;82.15
70166;SHT30;57541;47.408;18.822;2023-10-31T02:51:25;15.44;82.04
70166;SHT30;57541;47.408;18.822;2023-10-31T02:51:57;15.46;81.99
70166;SHT30;57541;47.408;18.822;2023-10-31T02:52:28;15.44;81.80
70166;SHT30;57541;47.408;18.822;2023-10-31T02:53:00;15.47;81.53
70166;SHT30;57541;47.408;18.822;2023-10-31T02:53:32;15.49;81.46
70166;SHT30;57541;47.408;18.822;2023-10-31T02:54:04;15.47;81.55
70166;SHT30;57541;47.408;18.822;2023-10-31T02:54:36;15.44;81.90
70166;SHT30;57541;47.408;18.822;2023-10-31T02:55:08;15.43;82.11
70166;SHT30;57541;47.408;18.822;2023-10-31T02:55:39;15.43;82.26
70166;SHT30;57541;47.408;18.822;2023-10-31T02:56:11;15.40;82.38
70166;SHT30;57541;47.408;18.822;2023-10-31T02:56:43;15.43;82.13
70166;SHT30;57541;47.408;18.822;2023-10-31T02:57:16;15.44;81.73
70166;SHT30;57541;47.408;18.822;2023-10-31T02:57:47;15.46;81.84
70166;SHT30;57541;47.408;18.822;2023-10-31T02:58:19;15.44;82.00
70166;SHT30;57541;47.408;18.822;2023-10-31T02:58:51;15.46;82.06
70166;SHT30;57541;47.408;18.822;2023-10-31T02:59:22;15.44;82.08
70166;SHT30;57541;47.408;18.822;2023-10-31T02:59:54;15.43;81.98
70166;SHT30;57541;47.408;18.822;2023-10-31T03:00:26;15.43;81.89
70166;SHT30;57541;47.408;18.822;2023-10-31T03:00:58;15.42;82.07
70166;SHT30;57541;47.408;18.822;2023-10-31T03:01:30;15.43;82.25
70166;SHT30;57541;47.408;18.822;2023-10-31T03:02:01;15.43;82.35
70166;SHT30;57541;47.408;18.822;2023-10-31T03:02:33;15.43;82.07
70166;SHT30;57541;47.408;18.822;2023-10-31T03:03:05;15.42;82.20
70166;SHT30;57541;47.408;18.822;2023-10-31T03:03:37;15.40;82.62
70166;SHT30;57541;47.408;18.822;2023-10-31T03:04:09;15.40;82.76
70166;SHT30;57541;47.408;18.822;2023-10-31T03:04:41;15.36;82.57
70166;SHT30;57541;47.408;18.822;2023-10-31T03:05:12;15.36;82.41
70166;SHT30;57541;47.408;18.822;2023-10-31T03:05:44;15.36;82.37
70166;SHT30;57541;47.408;18.822;2023-10-31T03:06:16;15.36;82.37
70166;SHT30;57541;47.408;18.822;2023-10-31T03:06:48;15.35;82.49
70166;SHT30;57541;47.408;18.822;2023-10-31T03:07:19;15.35;82.55
70166;SHT30;57541;47.408;18.822;2023-10-31T03:07:51;15.36;82.36
70166;SHT30;57541;47.408;18.822;2023-10-31T03:08:24;15.35;82.79
70166;SHT30;57541;47.408;18.822;2023-10-31T03:08:55;15.33;82.74
70166;SHT30;57541;47.408;18.822;2023-10-31T03:09:27;15.35;82.43
70166;SHT30;57541;47.408;18.822;2023-10-31T03:09:59;15.36;82.44
70166;SHT30;57541;47.408;18.822;2023-10-31T03:10:31;15.36;82.39
70166;SHT30;57541;47.408;18.822;2023-10-31T03:11:02;15.35;82.51
70166;SHT30;57541;47.408;18.822;2023-10-31T03:11:34;15.35;82.48
70166;SHT30;57541;47.408;18.822;2023-10-31T03:12:06;15.33;82.58
70166;SHT30;57541;47.408;18.822;2023-10-31T03:12:38;15.33;82.87
70166;SHT30;57541;47.408;18.822;2023-10-31T03:13:10;15.31;82.90
70166;SHT30;57541;47.408;18.822;2023-10-31T03:13:41;15.31;83.31
70166;SHT30;57541;47.408;18.822;2023-10-31T03:14:13;15.29;82.95
70166;SHT30;57541;47.408;18.822;2023-10-31T03:14:45;15.29;82.78
70166;SHT30;57541;47.408;18.822;2023-10-31T03:15:19;15.31;82.62
70166;SHT30;57541;47.408;18.822;2023-10-31T03:15:50;15.29;82.65
70166;SHT30;57541;47.408;18.822;2023-10-31T03:16:22;15.32;82.58
70166;SHT30;57541;47.408;18.822;2023-10-31T03:16:54;15.31;82.70
70166;SHT30;57541;47.408;18.822;2023-10-31T03:17:26;15.32;82.78
70166;SHT30;57541;47.408;18.822;2023-10-31T03:17:59;15.28;82.99
70166;SHT30;57541;47.408;18.822;2023-10-31T03:18:31;15.26;83.11
70166;SHT30;57541;47.408;18.822;2023-10-31T03:19:03;15.26;83.34
70166;SHT30;57541;47.408;18.822;2023-10-31T03:19:34;15.26;82.86
70166;SHT30;57541;47.408;18.822;2023-10-31T03:20:07;15.23;82.85